Weather observations for the past three days for
Batesville, Batesville Regional Airport
Imperial (Metric)
Date Time (cdt) Wind (mph) Vis. (mi.) Weather Sky Cond. Temperature (ºF) Relative Humidity Wind Chill (°F) Heat Index (°F) Pressure Precipitation (in)
Air Dwpt 6 hour altimeter (in) sea level (mb) 1 hr 3 hr 6 hr
Max. Min.
09 05:56 Calm 10.00 Fair CLR 57.9 54 87% 29.82 1009.7
09 04:56 NW 3 10.00 Fair CLR 59 54 83% 29.83 1009.7
09 03:56 Calm 10.00 Fair CLR 59 55 87% 29.82 1009.5
09 02:56 SW 5 10.00 Fair CLR 62.1 55 78% 29.84 1010.0
09 01:56 NW 7 10.00 Fair CLR 64.9 54 68% 29.82 1009.6
09 00:56 W 12 G 20 10.00 Fair CLR 66.9 54 71.1 64.9 63% 29.8 1009.1
08 23:56 Calm 10.00 A Few Clouds FEW120 66.9 52 59% 29.81 1009.3
08 22:56 SW 9 10.00 A Few Clouds FEW120 68 51.1 55% 29.83 1009.9
08 21:56 SW 5 10.00 A Few Clouds FEW110 66 51.1 59% 29.86 1010.8
08 20:56 S 5 10.00 Fair CLR 66 51.1 59% 29.84 1010.1
08 19:56 S 3 10.00 Fair CLR 68 52 57% 29.83 1009.7
08 18:56 S 6 10.00 Fair CLR 71.1 51.1 75.9 71.1 49% 29.82 1009.7
08 17:56 S 9 10.00 Fair CLR 73.9 48.9 41% 29.82 1009.7
08 16:56 SW 9 10.00 Fair CLR 75 50 42% 78 29.83 1010.0
08 15:56 Vrbl 6 10.00 Fair CLR 75 51.1 43% 78 29.85 1010.6
08 14:56 Vrbl 7 G 16 10.00 Fair CLR 75 52 45% 78 29.87 1011.2
08 13:56 S 9 5.00 Fair with Haze CLR 73.9 52 46% 29.89 1012.0
08 12:56 S 13 G 20 10.00 Fair CLR 72 52 72 55 50% 29.93 1013.3
08 11:56 Vrbl 7 10.00 Fair CLR 71.1 52 51% 29.96 1014.4
08 10:56 SW 12 10.00 Fair CLR 69.1 52 55% 29.99 1015.3
08 09:56 Vrbl 6 10.00 Fair CLR 66.9 52 59% 30 1015.7
08 08:56 SW 5 10.00 Fair CLR 64 50 60% 30.02 1016.4
08 07:56 SW 5 10.00 Fair CLR 61 48.9 65% 30.02 1016.4
08 06:56 Calm 10.00 Fair CLR 55.9 48.9 57 51.1 77% 30.01 1016.3
08 05:56 S 3 10.00 Fair CLR 55 48 77% 30 1015.6
08 04:56 S 7 10.00 Fair CLR 55 48 77% 30 1015.6
08 03:56 SE 5 10.00 Fair CLR 52 48.9 89% 30 1015.9
08 02:56 Calm 10.00 Fair CLR 52 48.9 89% 30 1015.9
08 01:56 Calm 10.00 Fair CLR 53.1 48.9 86% 30.02 1016.4
08 00:56 Calm 10.00 Fair CLR 55 50 69.1 55 83% 30.02 1016.7
07 23:56 SE 3 10.00 Fair CLR 57.9 50 75% 30.02 1016.5
07 22:56 S 5 10.00 Fair CLR 59 48.9 69% 30.02 1016.5
07 21:56 SE 5 10.00 Fair CLR 60.1 48.9 67% 30.01 1016.1
07 20:56 SE 3 10.00 Fair CLR 61 48.9 65% 30 1015.7
07 19:56 Calm 10.00 Fair CLR 64.9 46.9 52% 29.98 1015.1
07 18:56 SE 5 10.00 Fair CLR 69.1 44.1 72 64.9 41% 29.98 1015.1
07 17:56 NW 5 10.00 Fair CLR 71.1 42.1 35% 29.98 1015.2
07 16:56 Calm 10.00 Fair CLR 70 41 35% 29.98 1015.3
07 15:56 W 5 10.00 Fair CLR 69.1 41 36% 30 1015.6
07 14:56 Vrbl 3 10.00 Fair CLR 68 41 38% 30.01 1016.3
07 13:56 Vrbl 3 10.00 Fair CLR 66.9 39 36% 30.05 1017.3
07 12:56 W 5 10.00 Fair CLR 64.9 43 66 46 45% 30.06 1017.8
07 11:56 Vrbl 5 10.00 Fair CLR 63 42.1 47% 30.09 1018.9
07 10:56 Calm 10.00 Fair CLR 62.1 43 50% 30.1 1019.1
07 09:56 NE 5 10.00 Fair CLR 57.9 45 62% 30.11 1019.6
07 08:56 Calm 10.00 Fair CLR 53.1 44.1 72% 30.11 1019.6
07 07:56 W 3 10.00 Fair CLR 48.9 45 86% 30.1 1019.5
07 06:56 NW 3 10.00 Fair CLR 46 44.1 50 45 93% 30.08 1018.9
07 05:56 NW 3 10.00 Fair CLR 45 44.1 97% 30.08 1018.6
07 04:56 Calm 10.00 Fair CLR 46 45 96% 30.05 1017.7
07 03:56 Calm 10.00 Fair CLR 46.9 46.9 100% 30.06 1017.9
07 02:56 NW 3 10.00 Fair CLR 48.9 48 97% 30.04 1017.5
07 01:56 NW 3 10.00 Fair CLR 50 48.9 96% 30.04 1017.5
07 00:56 Calm 10.00 Fair CLR 50 50 57 50 100% 30.05 1017.5
06 23:56 NW 3 10.00 Fair CLR 52 51.1 97% 30.04 1017.4
06 22:56 Calm 10.00 Overcast BKN090 OVC110 54 52 93% 30.04 1017.2
06 21:56 Calm 10.00 Mostly Cloudy FEW080 BKN120 53.1 51.1 93% 30.02 1016.8
06 20:56 Calm 10.00 Partly Cloudy SCT100 54 51.1 90% 30.01 1016.3
06 19:56 Calm 10.00 Mostly Cloudy BKN110 55.9 50 81% 30 1015.9
06 18:56 SE 5 10.00 A Few Clouds FEW110 57 48.9 60.1 55 74% 30 1015.8
06 17:56 E 3 10.00 Partly Cloudy SCT110 59 46.9 64% 30 1015.8
06 16:56 NE 5 10.00 A Few Clouds FEW120 57.9 46.9 67% 29.96 1014.7
06 15:56 NE 5 10.00 Fair CLR 55.9 46 70% 29.98 1015.3
06 14:56 Calm 10.00 Light Rain FEW050 55 46.9 74% 30.02 1016.8
06 13:56 NE 5 10.00 Light Rain FEW120 55.9 44.1 65% 30.04 1017.2
06 12:56 Vrbl 3 10.00 Partly Cloudy FEW041 SCT110 55 44.1 57 48 67% 30.06 1017.9
06 11:56 Vrbl 7 10.00 A Few Clouds FEW045 55.9 45 67% 30.02 1016.6
06 10:56 NE 7 10.00 Overcast FEW024 OVC047 55 45 69% 30.03 1017.0
06 09:56 N 7 10.00 Overcast OVC039 52 45 77% 30.03 1016.9
06 08:56 Vrbl 5 10.00 Overcast OVC035 50 46 86% 49 30.02 1016.4
06 07:56 N 5 10.00 Overcast OVC035 48 45 89% 47 30 1015.9
06 06:56 Vrbl 3 10.00 Overcast OVC031 48 45 50 46.9 89% 29.96 1014.5
Date Time (cdt) Wind (mph) Vis. (mi.) Weather Sky Cond. Air Dwpt Max. Min. Relative Humidity Wind Chill (°F) Heat Index (°F) altimeter (in) sea level (mb) 1 hr 3 hr 6 hr
6 hour
Temperature (ºF) Pressure Precipitation (in)